Time;durP1;ratioP1;P1;durP2;ratioP2;P2;SDS_P1;SDS_P2;PMS_P1;PMS_P2;Temp;Humidity;BMP_temperature;BMP_pressure;BME280_temperature;BME280_humidity;BME280_pressure;Samples;Min_cycle;Max_cycle;Signal;HPM_P1;HPM_P2
2022/08/08 00:00:48;;;;;;;1.92;1.58;;;;;;;14.07;61.11;101029.91;5053504;28;20735;-84
2022/08/08 00:03:23;;;;;;;2.28;1.48;;;;;;;14.03;61.07;101026.47;5037449;28;20393;-83
2022/08/08 00:05:53;;;;;;;3.97;1.52;;;;;;;14.05;60.89;101026.72;5053249;28;20021;-84
2022/08/08 00:08:32;;;;;;;2.42;1.50;;;;;;;14.03;61.53;101020.72;5054482;28;20029;-85
2022/08/08 00:11:37;;;;;;;2.15;1.83;;;;;;;14.01;61.66;101020.41;5036594;28;20075;-84
2022/08/08 00:14:48;;;;;;;3.28;1.80;;;;;;;13.97;61.69;101020.63;5054492;28;20025;-84
2022/08/08 00:17:22;;;;;;;3.20;1.85;;;;;;;13.93;61.88;101025.78;5054113;28;20036;-83
2022/08/08 00:20:09;;;;;;;6.70;2.13;;;;;;;13.91;62.18;101021.81;5053138;28;20021;-85
2022/08/08 00:22:50;;;;;;;2.65;2.03;;;;;;;13.87;62.36;101015.50;5053170;28;20025;-84
2022/08/08 00:25:25;;;;;;;4.75;2.17;;;;;;;13.83;62.13;101020.66;5052893;28;20393;-83
2022/08/08 00:27:55;;;;;;;2.60;2.08;;;;;;;13.80;62.26;101027.38;5054266;28;20444;-80
2022/08/08 00:30:23;;;;;;;2.85;1.77;;;;;;;13.77;62.35;101028.38;5052364;28;20036;-79
2022/08/08 00:32:56;;;;;;;2.45;1.58;;;;;;;13.74;62.23;101027.28;5035920;28;20036;-81
2022/08/08 00:35:29;;;;;;;4.32;2.15;;;;;;;13.70;62.70;101026.69;5035837;28;20021;-80
2022/08/08 00:38:07;;;;;;;2.22;1.98;;;;;;;13.67;62.81;101018.31;5052157;28;20056;-80
2022/08/08 00:40:58;;;;;;;2.90;1.73;;;;;;;13.65;62.97;101023.72;5053279;28;20067;-79
2022/08/08 00:44:00;;;;;;;2.40;1.70;;;;;;;13.61;63.95;101026.03;5052102;28;20481;-79
2022/08/08 00:46:58;;;;;;;3.22;2.10;;;;;;;13.59;63.87;101028.63;5052108;28;20025;-79
2022/08/08 00:50:02;;;;;;;3.72;1.98;;;;;;;13.55;63.74;101028.81;5053400;28;20025;-79
2022/08/08 00:53:06;;;;;;;1.60;1.50;;;;;;;13.51;63.80;101028.22;5032481;28;20496;-79
2022/08/08 00:55:51;;;;;;;3.58;2.17;;;;;;;13.45;64.02;101025.22;5033493;28;20536;-79
2022/08/08 00:58:52;;;;;;;10.30;2.35;;;;;;;13.34;64.53;101004.16;5033454;28;20147;-79
2022/08/08 01:01:33;;;;;;;3.25;1.90;;;;;;;13.40;64.74;101022.22;5010820;28;20033;-79
2022/08/08 01:04:18;;;;;;;3.70;1.75;;;;;;;13.38;64.83;101027.69;5032019;28;20065;-81
2022/08/08 01:07:03;;;;;;;2.38;1.92;;;;;;;13.37;64.63;101020.38;5033140;28;20425;-79
2022/08/08 01:10:06;;;;;;;3.00;2.00;;;;;;;13.37;65.01;101029.78;5033351;28;20022;-79
2022/08/08 01:13:09;;;;;;;3.17;1.80;;;;;;;13.36;65.00;101027.38;5036598;28;20501;-83
2022/08/08 01:16:36;;;;;;;2.78;1.75;;;;;;;13.35;65.22;101023.72;5054883;28;20040;-80
2022/08/08 01:19:32;;;;;;;2.78;1.73;;;;;;;13.33;65.16;101034.94;5035108;28;20059;-79
2022/08/08 01:22:31;;;;;;;3.67;1.88;;;;;;;13.32;65.44;101033.34;5055920;28;20021;-79
2022/08/08 01:25:15;;;;;;;3.88;1.60;;;;;;;13.31;65.65;101037.50;5055961;28;20032;-78
2022/08/08 01:28:10;;;;;;;3.47;2.20;;;;;;;13.29;65.95;101040.06;5056985;28;20100;-79
2022/08/08 01:30:45;;;;;;;3.45;1.80;;;;;;;13.26;65.65;101029.56;5057168;28;20433;-79
2022/08/08 01:33:48;;;;;;;6.25;2.30;;;;;;;13.25;66.01;101027.19;5057239;28;20501;-78
2022/08/08 01:36:33;;;;;;;2.58;2.08;;;;;;;13.23;66.35;101032.63;5055858;28;20043;-78
2022/08/08 01:39:25;;;;;;;2.72;1.98;;;;;;;13.20;66.32;101031.53;5054969;28;20044;-79
2022/08/08 01:42:07;;;;;;;;;;;;;;;13.18;66.23;101036.19;5039427;28;20021;-79
2022/08/08 01:44:51;;;;;;;2.87;1.90;;;;;;;13.14;66.22;101033.53;5055447;28;20373;-79
2022/08/08 01:47:42;;;;;;;4.93;2.67;;;;;;;13.11;66.45;101035.28;5057063;28;20349;-79
2022/08/08 01:50:08;;;;;;;3.50;2.10;;;;;;;13.09;66.42;101042.81;5055433;28;20025;-79
2022/08/08 01:53:00;;;;;;;2.75;2.00;;;;;;;13.07;66.61;101036.78;5056576;28;20102;-78
2022/08/08 01:55:48;;;;;;;3.17;2.40;;;;;;;13.05;66.63;101036.47;5055591;28;20470;-79
2022/08/08 01:58:56;;;;;;;3.25;2.33;;;;;;;13.03;66.82;101027.56;5055468;28;20059;-79
2022/08/08 02:01:45;;;;;;;4.20;1.95;;;;;;;12.99;66.65;101032.72;5051664;28;20473;-79
2022/08/08 02:05:04;;;;;;;3.15;2.20;;;;;;;12.98;66.81;101037.66;5055177;28;20074;-79
2022/08/08 02:08:00;;;;;;;5.90;2.42;;;;;;;12.94;67.30;101037.06;5027965;28;20048;-79
2022/08/08 02:10:53;;;;;;;4.38;2.63;;;;;;;12.92;66.98;101035.97;5056411;28;20025;-78
2022/08/08 02:13:51;;;;;;;3.60;2.65;;;;;;;12.88;66.95;101030.41;5055269;28;20071;-78
2022/08/08 02:16:36;;;;;;;3.72;2.63;;;;;;;12.87;67.13;101036.63;5051961;28;20040;-78
2022/08/08 02:19:23;;;;;;;3.03;2.45;;;;;;;12.83;67.42;101039.69;5056381;28;20029;-80
2022/08/08 02:24:55;;;;;;;5.28;2.58;;;;;;;12.77;67.55;101041.66;5055345;28;20032;-81
2022/08/08 02:27:28;;;;;;;7.55;2.70;;;;;;;12.75;67.61;101031.97;5056496;28;20466;-81
2022/08/08 02:30:09;;;;;;;3.80;2.97;;;;;;;12.76;67.58;101042.13;5038375;28;20107;-81
2022/08/08 02:32:53;;;;;;;2.88;2.30;;;;;;;12.74;67.63;101050.47;5055809;28;20029;-82
2022/08/08 02:36:05;;;;;;;4.78;3.13;;;;;;;12.72;67.65;101053.00;5055846;28;20485;-81
2022/08/08 02:38:33;;;;;;;2.83;2.50;;;;;;;12.69;67.84;101055.59;5046675;28;20081;-81
2022/08/08 02:41:12;;;;;;;3.13;2.65;;;;;;;12.71;68.10;101055.09;5054448;28;20048;-80
2022/08/08 02:44:09;;;;;;;3.30;2.38;;;;;;;12.69;67.88;101054.78;5054270;28;20119;-80
2022/08/08 02:46:49;;;;;;;4.35;2.50;;;;;;;12.69;67.90;101051.94;5055668;28;20025;-81
2022/08/08 02:49:46;;;;;;;2.92;2.40;;;;;;;12.67;67.59;101058.16;5055520;28;20486;-80
2022/08/08 02:52:24;;;;;;;2.90;2.60;;;;;;;12.67;67.68;101060.22;5054050;28;20017;-80
2022/08/08 02:55:33;;;;;;;5.57;2.55;;;;;;;12.59;68.13;101041.81;5055519;28;20474;-80
2022/08/08 02:58:20;;;;;;;3.35;2.60;;;;;;;12.61;67.93;101059.28;5055781;28;20125;-81
2022/08/08 03:01:22;;;;;;;4.88;3.08;;;;;;;12.57;68.23;101056.63;5054284;28;20134;-82
2022/08/08 03:04:14;;;;;;;3.22;2.63;;;;;;;12.53;68.42;101063.81;5055166;28;20021;-81
2022/08/08 03:07:10;;;;;;;5.07;2.72;;;;;;;12.50;68.57;101062.75;5055660;28;20470;-82
2022/08/08 03:10:07;;;;;;;4.30;2.60;;;;;;;12.47;68.80;101055.09;5053846;28;20029;-81
2022/08/08 03:13:10;;;;;;;6.30;2.97;;;;;;;12.45;69.09;101069.16;5055942;28;20032;-80
2022/08/08 03:16:11;;;;;;;8.95;3.17;;;;;;;12.45;69.10;101066.28;5055800;28;20032;-81
2022/08/08 03:19:00;;;;;;;4.35;3.00;;;;;;;12.44;68.94;101067.56;5056076;28;20104;-81
2022/08/08 03:21:26;;;;;;;4.97;3.10;;;;;;;12.45;69.22;101074.09;5055065;28;20354;-81
2022/08/08 03:23:52;;;;;;;5.60;2.58;;;;;;;12.45;69.55;101071.22;5055249;28;20115;-82
2022/08/08 03:26:28;;;;;;;5.85;3.00;;;;;;;12.47;69.40;101080.09;5036968;28;20658;-81
2022/08/08 03:29:03;;;;;;;6.40;2.83;;;;;;;12.47;69.47;101072.31;5055134;28;20040;-80
2022/08/08 03:34:23;;;;;;;4.55;2.78;;;;;;;12.46;69.62;101079.31;5054983;28;20042;-81
2022/08/08 03:36:48;;;;;;;11.30;3.05;;;;;;;12.47;69.65;101089.50;5037971;28;20036;-81
2022/08/08 03:39:15;;;;;;;7.10;2.92;;;;;;;12.50;69.61;101079.16;5053567;28;20057;-81
2022/08/08 03:41:49;;;;;;;3.67;3.08;;;;;;;12.53;69.91;101066.69;5053555;28;20454;-82
2022/08/08 03:44:15;;;;;;;6.40;3.17;;;;;;;12.56;69.72;101086.56;5054624;28;20032;-81
2022/08/08 03:46:47;;;;;;;3.60;2.60;;;;;;;12.55;69.73;101073.50;5054678;28;20032;-81
2022/08/08 03:49:24;;;;;;;4.95;3.05;;;;;;;12.59;70.16;101074.16;5094853;22;20060;-80
2022/08/08 03:51:54;;;;;;;6.85;3.10;;;;;;;12.63;69.61;101085.41;5033987;28;20029;-80
2022/08/08 03:54:20;;;;;;;5.57;3.00;;;;;;;12.57;69.69;101073.81;5033134;28;20543;-80
2022/08/08 03:56:45;;;;;;;5.50;3.08;;;;;;;12.67;69.85;101083.16;5033152;28;20037;-81
2022/08/08 03:59:11;;;;;;;4.13;2.25;;;;;;;12.72;69.93;101079.63;5032906;28;20056;-80
2022/08/08 04:01:38;;;;;;;11.93;3.60;;;;;;;12.73;70.14;101078.34;5032800;28;20033;-78
2022/08/08 04:04:04;;;;;;;5.80;2.92;;;;;;;12.76;69.96;101080.22;5016427;28;20028;-80
2022/08/08 04:06:29;;;;;;;6.55;2.63;;;;;;;12.77;70.15;101086.75;5016285;28;20030;-80
2022/08/08 04:08:55;;;;;;;8.23;4.60;;;;;;;12.78;69.94;101079.75;5031740;28;20033;-80
2022/08/08 04:11:20;;;;;;;6.68;3.67;;;;;;;12.75;70.37;101081.50;5034009;28;20040;-80
2022/08/08 04:13:45;;;;;;;8.00;3.33;;;;;;;12.77;70.52;101086.75;5033867;28;20029;-80
2022/08/08 04:16:11;;;;;;;4.88;3.05;;;;;;;12.81;70.49;101090.22;5034272;28;20029;-79
2022/08/08 04:18:36;;;;;;;4.10;3.47;;;;;;;12.82;70.73;101094.69;5032523;28;20034;-80
2022/08/08 04:21:01;;;;;;;13.00;4.15;;;;;;;12.82;70.69;101088.94;5016078;28;20120;-80
2022/08/08 04:23:27;;;;;;;15.20;4.13;;;;;;;12.80;71.53;101095.16;5016177;28;20094;-80
2022/08/08 04:25:52;;;;;;;19.48;4.32;;;;;;;12.87;71.54;101097.66;5032562;28;20021;-81
2022/08/08 04:28:18;;;;;;;17.80;4.35;;;;;;;12.89;71.65;101085.72;5033638;28;20115;-79
2022/08/08 04:30:43;;;;;;;9.60;4.13;;;;;;;12.95;71.38;101101.75;5033481;28;20029;-79
2022/08/08 04:33:08;;;;;;;22.83;7.75;;;;;;;13.01;71.67;101096.13;5033948;28;20048;-80
2022/08/08 04:35:34;;;;;;;17.98;5.40;;;;;;;13.08;71.31;101099.41;5033888;28;20108;-79
2022/08/08 04:37:59;;;;;;;11.88;4.28;;;;;;;13.13;71.23;101093.00;5032348;28;20108;-79
2022/08/08 04:40:24;;;;;;;7.97;3.92;;;;;;;13.23;70.59;101092.91;5033880;28;20484;-80
2022/08/08 04:42:51;;;;;;;6.63;4.57;;;;;;;13.30;70.17;101098.25;5033348;28;20108;-79
2022/08/08 04:45:16;;;;;;;6.35;3.40;;;;;;;13.35;69.41;101086.88;5032610;28;20029;-80
2022/08/08 04:47:42;;;;;;;5.88;2.92;;;;;;;13.57;68.86;101100.91;5032255;28;20060;-80
2022/08/08 04:50:08;;;;;;;4.95;3.10;;;;;;;13.69;68.39;101107.66;5033248;28;20064;-80
2022/08/08 04:52:33;;;;;;;4.28;3.22;;;;;;;13.76;67.76;101108.03;5033297;28;20061;-80
2022/08/08 04:54:59;;;;;;;4.47;2.67;;;;;;;13.85;67.43;101107.91;5033519;28;20048;-79
2022/08/08 04:57:25;;;;;;;5.38;3.05;;;;;;;13.87;67.03;101104.56;5033469;28;20037;-80
2022/08/08 04:59:50;;;;;;;5.63;3.15;;;;;;;13.98;66.24;101104.75;5015827;28;20092;-79
2022/08/08 05:02:16;;;;;;;5.65;2.30;;;;;;;14.11;65.79;101115.94;5032273;28;20035;-80
2022/08/08 05:04:41;;;;;;;4.90;3.00;;;;;;;14.19;65.45;101120.75;5032259;28;20111;-81
2022/08/08 05:07:07;;;;;;;6.15;2.80;;;;;;;14.29;64.87;101113.59;5015718;28;20037;-81
2022/08/08 05:09:36;;;;;;;5.55;3.03;;;;;;;14.35;64.61;101111.59;5032211;28;20443;-81
2022/08/08 05:12:02;;;;;;;2.88;2.60;;;;;;;14.46;63.81;101118.81;5033285;28;20037;-81
2022/08/08 05:14:28;;;;;;;2.55;2.35;;;;;;;14.54;63.24;101119.97;5032258;28;20068;-81
2022/08/08 05:16:54;;;;;;;3.80;2.45;;;;;;;14.65;62.79;101120.97;5032095;28;20025;-80
2022/08/08 05:19:19;;;;;;;4.65;2.83;;;;;;;14.76;62.66;101120.34;5015685;28;20370;-80
2022/08/08 05:21:45;;;;;;;5.68;3.10;;;;;;;14.82;62.41;101129.84;5032106;28;20029;-79
2022/08/08 05:24:10;;;;;;;2.95;2.63;;;;;;;14.89;61.81;101134.34;5015534;28;20029;-80
2022/08/08 05:26:37;;;;;;;8.52;2.65;;;;;;;14.90;61.72;101125.22;5033007;28;20037;-80
2022/08/08 05:29:07;;;;;;;5.45;3.00;;;;;;;15.01;61.52;101131.13;5033347;28;20029;-80
2022/08/08 05:31:33;;;;;;;6.35;3.05;;;;;;;15.09;61.61;101131.47;5031896;28;20026;-80
2022/08/08 05:33:58;;;;;;;8.43;3.63;;;;;;;15.15;61.54;101124.50;5031925;28;20029;-80
2022/08/08 05:36:25;;;;;;;5.00;3.78;;;;;;;15.28;61.36;101136.44;5033275;28;20079;-82
2022/08/08 05:38:51;;;;;;;3.03;2.67;;;;;;;15.33;61.12;101125.47;5031032;28;20079;-81
2022/08/08 05:41:20;;;;;;;5.32;3.03;;;;;;;15.45;60.96;101142.41;5032971;28;20057;-81
2022/08/08 05:43:46;;;;;;;5.30;3.20;;;;;;;15.58;60.68;101136.22;5032196;28;20064;-79
2022/08/08 05:46:12;;;;;;;4.82;3.47;;;;;;;15.58;60.28;101131.28;5031939;28;20064;-81
2022/08/08 05:48:38;;;;;;;7.70;2.97;;;;;;;15.68;60.47;101135.59;5031600;28;20087;-79
2022/08/08 05:51:04;;;;;;;3.30;2.72;;;;;;;15.77;60.28;101137.50;5032947;28;20050;-80
2022/08/08 05:53:29;;;;;;;5.82;2.70;;;;;;;15.84;59.99;101147.81;5033166;28;20068;-78
2022/08/08 05:55:57;;;;;;;4.05;2.85;;;;;;;15.89;59.36;101147.84;5032886;28;20373;-79
2022/08/08 05:58:30;;;;;;;5.68;2.45;;;;;;;16.03;59.25;101151.91;5033563;28;20029;-80
2022/08/08 06:00:57;;;;;;;4.97;2.60;;;;;;;16.06;59.34;101145.09;5035260;28;20070;-79
2022/08/08 06:03:23;;;;;;;2.85;2.00;;;;;;;16.09;58.96;101138.34;5035317;28;20093;-79
2022/08/08 06:05:51;;;;;;;2.92;2.63;;;;;;;16.20;58.67;101143.41;5018811;28;20025;-79
2022/08/08 06:08:28;;;;;;;27.33;6.13;;;;;;;16.37;58.63;101164.50;5035017;28;20052;-79
2022/08/08 06:10:56;;;;;;;2.45;2.25;;;;;;;16.43;58.32;101160.38;5036738;28;20045;-79
2022/08/08 06:13:22;;;;;;;3.13;2.28;;;;;;;16.53;58.10;101153.13;5018919;28;20052;-80
2022/08/08 06:15:48;;;;;;;4.75;2.40;;;;;;;16.71;57.88;101162.69;5018635;28;20088;-77
2022/08/08 06:18:15;;;;;;;3.58;2.08;;;;;;;16.85;57.74;101173.25;5036026;28;20033;-73
2022/08/08 06:20:42;;;;;;;4.63;2.30;;;;;;;16.99;57.53;101169.44;5036156;28;20021;-73
2022/08/08 06:23:07;;;;;;;2.92;2.05;;;;;;;17.12;56.73;101166.06;5034656;28;20033;-75
2022/08/08 06:25:35;;;;;;;2.72;1.70;;;;;;;17.22;56.22;101168.22;5036057;28;20029;-74
2022/08/08 06:28:03;;;;;;;10.75;2.28;;;;;;;17.38;56.35;101169.59;5036087;28;20108;-74
2022/08/08 06:30:29;;;;;;;8.25;2.28;;;;;;;17.58;55.13;101169.44;5034789;28;20034;-76
2022/08/08 06:32:57;;;;;;;2.05;1.45;;;;;;;17.79;54.11;101176.56;5035916;28;20397;-75
2022/08/08 06:35:23;;;;;;;3.33;1.95;;;;;;;18.07;53.29;101173.72;5035667;28;20035;-74
2022/08/08 06:37:55;;;;;;;2.25;1.30;;;;;;;19.29;52.79;101161.19;5035770;28;20025;-75
2022/08/08 06:40:23;;;;;;;5.82;1.38;;;;;;;21.90;47.40;101157.16;5035778;28;20053;-77
2022/08/08 06:42:58;;;;;;;1.63;1.33;;;;;;;24.79;42.14;101159.06;5035819;28;20057;-77
2022/08/08 06:45:23;;;;;;;2.08;1.27;;;;;;;27.66;36.70;101169.84;5035464;28;20025;-77
2022/08/08 06:47:50;;;;;;;2.40;0.93;;;;;;;30.16;32.39;101180.81;5035184;28;20477;-75
2022/08/08 06:50:16;;;;;;;4.70;1.17;;;;;;;31.94;27.12;101189.09;5035589;28;20037;-77
2022/08/08 06:52:42;;;;;;;18.65;3.15;;;;;;;33.19;25.83;101198.28;5035817;28;20104;-77
2022/08/08 06:55:08;;;;;;;2.50;0.90;;;;;;;34.70;23.94;101201.91;5035964;28;20542;-77
2022/08/08 06:57:34;;;;;;;4.30;1.27;;;;;;;36.08;23.11;101207.47;5017862;28;20044;-79
2022/08/08 07:00:01;;;;;;;4.32;1.13;;;;;;;37.18;20.94;101221.16;5035622;28;20450;-77
2022/08/08 07:02:30;;;;;;;5.38;1.00;;;;;;;38.02;19.80;101227.13;5019323;28;20037;-76
2022/08/08 07:05:02;;;;;;;0.73;0.73;;;;;;;38.69;17.86;101241.69;5014712;28;20030;-77
2022/08/08 07:07:49;;;;;;;2.00;0.90;;;;;;;39.39;18.02;101242.03;5014597;28;20033;-74
2022/08/08 07:10:19;;;;;;;3.08;0.90;;;;;;;39.93;17.22;101239.97;5013220;28;20497;-75
2022/08/08 07:12:51;;;;;;;1.47;1.17;;;;;;;40.50;16.94;101243.09;5009147;28;20063;-75
2022/08/08 07:15:21;;;;;;;2.20;0.98;;;;;;;40.78;15.52;101242.75;5033752;28;20090;-74
2022/08/08 07:17:48;;;;;;;1.40;1.10;;;;;;;41.20;16.42;101241.41;5034112;28;20049;-75
2022/08/08 07:20:19;;;;;;;2.42;1.02;;;;;;;42.08;15.65;101243.09;5035390;28;20032;-74
2022/08/08 07:23:01;;;;;;;3.72;1.20;;;;;;;42.80;14.84;101243.22;5035046;28;20411;-74
2022/08/08 07:25:26;;;;;;;2.60;1.40;;;;;;;42.89;14.86;101257.03;5034886;28;20423;-75
2022/08/08 07:27:59;;;;;;;2.45;1.10;;;;;;;43.42;14.36;101248.13;5034034;28;20075;-74
2022/08/08 07:30:25;;;;;;;3.47;1.35;;;;;;;43.88;13.26;101259.97;5033916;28;20120;-73
2022/08/08 07:32:52;;;;;;;1.35;0.98;;;;;;;43.96;12.96;101257.91;5034785;28;20053;-73
2022/08/08 07:35:18;;;;;;;1.52;0.80;;;;;;;43.90;13.45;101260.75;5033425;28;20044;-74
2022/08/08 07:37:44;;;;;;;5.95;1.30;;;;;;;44.20;12.80;101251.75;5033366;28;20032;-74
2022/08/08 07:40:10;;;;;;;5.20;1.13;;;;;;;44.69;12.79;101244.66;5033276;28;20040;-74
2022/08/08 07:42:37;;;;;;;3.33;1.15;;;;;;;45.04;12.09;101260.53;5033197;28;20484;-74
2022/08/08 07:45:03;;;;;;;1.27;0.82;;;;;;;45.24;12.78;101254.94;5016847;28;20076;-74
2022/08/08 07:47:29;;;;;;;2.67;0.88;;;;;;;45.15;11.06;101263.06;5034645;28;20069;-74
2022/08/08 07:49:54;;;;;;;0.80;0.73;;;;;;;45.15;11.98;101250.22;5032849;28;20474;-74
2022/08/08 07:52:20;;;;;;;2.30;0.80;;;;;;;45.37;11.94;101244.66;5033137;28;20040;-73
2022/08/08 07:54:45;;;;;;;1.67;1.10;;;;;;;44.92;12.29;101255.03;5016687;28;20021;-74
2022/08/08 07:57:10;;;;;;;3.55;1.10;;;;;;;44.03;12.36;101252.06;5033130;28;20494;-75
2022/08/08 08:00:03;;;;;;;4.43;1.40;;;;;;;43.05;12.97;101246.25;5033581;28;20028;-75
2022/08/08 08:03:06;;;;;;;2.67;0.93;;;;;;;42.89;12.77;101239.75;5030976;28;20367;-76
2022/08/08 08:05:36;;;;;;;1.27;0.80;;;;;;;42.71;12.89;101245.97;5032163;28;20137;-75
2022/08/08 08:08:26;;;;;;;3.53;0.93;;;;;;;42.60;13.21;101232.06;5033132;28;20096;-74
2022/08/08 08:10:55;;;;;;;1.00;0.80;;;;;;;42.60;13.01;101235.06;5029706;28;20121;-73
2022/08/08 08:13:30;;;;;;;1.40;0.77;;;;;;;42.39;13.09;101238.13;5034332;28;20365;-74
2022/08/08 08:16:05;;;;;;;1.35;0.90;;;;;;;42.07;13.68;101225.75;5016605;28;20075;-76
2022/08/08 08:18:58;;;;;;;1.40;0.90;;;;;;;41.98;13.70;101218.72;5033055;28;20026;-75
2022/08/08 08:21:37;;;;;;;1.42;1.08;;;;;;;41.99;13.71;101222.50;5033906;28;20105;-74
2022/08/08 08:24:03;;;;;;;5.88;1.23;;;;;;;42.08;13.99;101216.06;5033228;28;20033;-75
2022/08/08 08:26:28;;;;;;;7.00;0.98;;;;;;;42.12;13.82;101230.44;5032835;28;20025;-74
2022/08/08 08:28:54;;;;;;;5.65;0.88;;;;;;;42.10;13.84;101230.38;5032946;28;20017;-73
2022/08/08 08:31:19;;;;;;;1.58;0.93;;;;;;;42.07;13.58;101226.53;5032751;28;20025;-73
2022/08/08 08:33:45;;;;;;;3.80;1.00;;;;;;;42.05;13.78;101220.47;5033839;28;20501;-74
2022/08/08 08:36:11;;;;;;;1.08;0.80;;;;;;;41.95;13.65;101229.13;5033210;28;20469;-74
2022/08/08 08:38:37;;;;;;;1.45;1.00;;;;;;;41.59;13.02;101224.81;5016338;28;20481;-73
2022/08/08 08:41:03;;;;;;;1.05;0.70;;;;;;;41.14;13.64;101219.38;5032636;28;20112;-74
2022/08/08 08:43:30;;;;;;;1.33;1.17;;;;;;;41.03;14.17;101215.19;5032543;28;20029;-74
2022/08/08 08:45:55;;;;;;;1.48;0.65;;;;;;;40.95;13.67;101214.91;5032361;28;20029;-74
2022/08/08 08:48:21;;;;;;;5.45;1.10;;;;;;;40.18;13.54;101218.56;5015734;28;20054;-74
2022/08/08 08:50:52;;;;;;;2.47;0.70;;;;;;;39.26;14.41;101215.97;5033460;28;20561;-73
2022/08/08 08:53:17;;;;;;;1.77;0.80;;;;;;;38.46;14.97;101200.94;5032377;28;20025;-74
2022/08/08 08:55:43;;;;;;;1.23;0.88;;;;;;;37.94;15.58;101196.88;5033597;28;20087;-74
2022/08/08 08:58:19;;;;;;;1.92;0.70;;;;;;;37.68;16.12;101192.50;5032442;28;20402;-75
2022/08/08 09:00:45;;;;;;;2.83;0.82;;;;;;;37.56;16.15;101183.72;5032467;28;20024;-73
2022/08/08 09:03:11;;;;;;;1.33;0.85;;;;;;;37.38;16.76;101190.91;5032267;28;20417;-73
2022/08/08 09:05:39;;;;;;;1.40;0.80;;;;;;;37.01;16.72;101194.13;5033360;28;20022;-73
2022/08/08 09:08:07;;;;;;;2.40;1.27;;;;;;;36.19;16.47;101188.75;5033571;28;20524;-74
2022/08/08 09:10:36;;;;;;;2.05;0.80;;;;;;;35.47;18.28;101179.97;5032676;28;20021;-76
2022/08/08 09:13:03;;;;;;;1.40;0.93;;;;;;;35.42;18.17;101175.19;5032040;28;20033;-76
2022/08/08 09:15:29;;;;;;;2.85;1.05;;;;;;;35.32;18.30;101174.59;5030987;28;20528;-76
2022/08/08 09:17:55;;;;;;;2.25;0.80;;;;;;;34.81;18.11;101188.44;5015509;28;20021;-76
2022/08/08 09:20:21;;;;;;;3.08;0.95;;;;;;;33.99;19.09;101165.97;5031803;28;20484;-76
2022/08/08 09:22:46;;;;;;;0.95;0.85;;;;;;;33.49;19.78;101164.06;5031647;28;20030;-75
2022/08/08 09:25:13;;;;;;;1.33;0.65;;;;;;;33.27;20.70;101172.22;5015471;28;20025;-76
2022/08/08 09:27:39;;;;;;;0.65;0.60;;;;;;;32.80;19.80;101161.41;5032124;28;20025;-75
2022/08/08 09:30:07;;;;;;;0.70;0.70;;;;;;;32.04;20.48;101169.91;5031233;28;20025;-76
2022/08/08 09:32:42;;;;;;;2.10;0.88;;;;;;;31.37;21.72;101181.75;5032285;28;20033;-75
2022/08/08 09:35:11;;;;;;;1.38;1.00;;;;;;;30.65;22.26;101168.66;5035414;28;20025;-76
2022/08/08 09:37:44;;;;;;;2.22;0.70;;;;;;;30.22;23.18;101160.69;5034979;28;20028;-77
2022/08/08 09:40:11;;;;;;;1.58;0.90;;;;;;;30.21;23.60;101162.84;5034930;28;20017;-75
2022/08/08 09:42:54;;;;;;;4.20;0.95;;;;;;;30.36;23.33;101164.78;5035149;28;20021;-76
2022/08/08 09:45:43;;;;;;;2.97;0.75;;;;;;;30.55;23.72;101158.97;5034119;28;20485;-76
2022/08/08 09:48:09;;;;;;;5.53;1.13;;;;;;;30.77;23.13;101160.00;5035986;28;20049;-76
2022/08/08 09:50:35;;;;;;;5.50;0.88;;;;;;;30.68;23.04;101167.44;5035575;28;20148;-76
2022/08/08 09:53:02;;;;;;;1.95;0.63;;;;;;;30.34;23.57;101161.66;5036897;28;20370;-76
2022/08/08 09:55:29;;;;;;;3.17;1.00;;;;;;;29.92;23.50;101162.63;5036826;28;20075;-76
2022/08/08 09:58:06;;;;;;;2.17;1.10;;;;;;;29.41;24.60;101153.84;5037057;28;20034;-75
2022/08/08 10:00:35;;;;;;;7.25;1.40;;;;;;;29.11;24.97;101155.75;5037172;28;20022;-76
2022/08/08 10:03:02;;;;;;;2.30;0.90;;;;;;;29.23;25.24;101158.97;5036642;28;20072;-77
2022/08/08 10:05:33;;;;;;;3.85;0.98;;;;;;;29.57;25.48;101149.38;5036870;28;20025;-76
2022/08/08 10:07:58;;;;;;;0.82;0.77;;;;;;;29.93;24.19;101149.44;5035393;28;20029;-76
2022/08/08 10:10:40;;;;;;;1.05;0.70;;;;;;;30.08;23.54;101149.25;5018829;28;20064;-76
2022/08/08 10:13:14;;;;;;;2.70;0.90;;;;;;;29.93;24.72;101146.50;5035213;28;20017;-76
2022/08/08 10:15:41;;;;;;;1.00;0.88;;;;;;;29.88;24.50;101149.72;5036565;28;20036;-77
2022/08/08 10:18:06;;;;;;;2.75;0.80;;;;;;;29.80;25.07;101143.94;5035266;28;20025;-75
2022/08/08 10:20:43;;;;;;;4.78;0.70;;;;;;;29.56;24.62;101153.66;5034636;28;20023;-76
2022/08/08 10:23:11;;;;;;;1.85;0.60;;;;;;;29.11;24.26;101143.97;5036508;28;20054;-76
2022/08/08 10:25:38;;;;;;;1.23;0.80;;;;;;;28.71;25.64;101149.25;5035294;28;20032;-76
2022/08/08 10:28:05;;;;;;;1.10;0.75;;;;;;;28.24;25.51;101153.13;5018948;28;20442;-77
2022/08/08 10:30:31;;;;;;;1.75;0.68;;;;;;;28.08;25.95;101143.63;5034942;28;20026;-76
2022/08/08 10:32:58;;;;;;;2.53;0.80;;;;;;;28.14;26.35;101134.56;5034877;28;20021;-76
2022/08/08 10:35:29;;;;;;;4.40;1.08;;;;;;;28.28;26.15;101145.44;5035014;28;20021;-76
2022/08/08 10:37:56;;;;;;;4.38;0.70;;;;;;;28.11;25.18;101142.41;5034813;28;20029;-76
2022/08/08 10:40:24;;;;;;;1.65;0.80;;;;;;;27.88;26.22;101142.53;5018310;28;20017;-76
2022/08/08 10:42:54;;;;;;;1.55;0.77;;;;;;;27.77;26.28;101137.09;5017944;28;20059;-76
2022/08/08 10:45:19;;;;;;;1.52;0.75;;;;;;;27.87;27.36;101140.19;5034705;28;20029;-76
2022/08/08 10:47:57;;;;;;;4.75;1.00;;;;;;;28.00;26.28;101131.91;5036053;28;20473;-74
2022/08/08 10:50:36;;;;;;;2.17;1.05;;;;;;;27.96;26.05;101137.41;5034607;28;20402;-74
2022/08/08 10:53:03;;;;;;;2.65;0.70;;;;;;;27.87;26.26;101140.19;5034505;28;20429;-73
2022/08/08 10:55:28;;;;;;;1.67;0.77;;;;;;;27.90;26.39;101133.91;5036088;28;20037;-73
2022/08/08 10:57:53;;;;;;;6.22;1.02;;;;;;;27.92;26.05;101130.41;5035676;28;20488;-74
2022/08/08 11:00:24;;;;;;;4.20;1.08;;;;;;;27.85;26.65;101134.16;5035635;28;20034;-75
2022/08/08 11:02:50;;;;;;;3.90;1.00;;;;;;;27.91;27.16;101129.63;5034360;28;20029;-74
2022/08/08 11:05:16;;;;;;;1.10;0.70;;;;;;;28.07;26.71;101132.47;5034384;28;20021;-75
2022/08/08 11:07:47;;;;;;;2.03;1.00;;;;;;;28.06;26.25;101136.78;5035460;28;20061;-75
2022/08/08 11:10:15;;;;;;;1.73;0.60;;;;;;;28.01;26.02;101127.59;5035234;28;20484;-74
2022/08/08 11:12:58;;;;;;;3.40;0.65;;;;;;;27.97;26.01;101117.63;5034115;28;20108;-74
2022/08/08 11:15:26;;;;;;;2.13;0.63;;;;;;;27.84;26.37;101130.41;5035213;28;20036;-74
2022/08/08 11:17:52;;;;;;;2.13;0.90;;;;;;;27.47;26.40;101125.50;5017596;28;20033;-74
2022/08/08 11:20:19;;;;;;;4.80;0.68;;;;;;;27.01;26.63;101134.41;5035178;28;20469;-74
2022/08/08 11:22:56;;;;;;;1.95;0.90;;;;;;;26.74;26.79;101137.00;5033934;28;20112;-74
2022/08/08 11:25:27;;;;;;;3.03;0.82;;;;;;;26.62;27.29;101135.78;5035415;28;20030;-74
2022/08/08 11:27:53;;;;;;;2.95;1.10;;;;;;;26.81;27.43;101123.72;5035055;28;20044;-74
2022/08/08 11:30:21;;;;;;;1.63;0.85;;;;;;;27.13;27.03;101128.91;5017101;28;20119;-74
2022/08/08 11:32:47;;;;;;;2.72;0.88;;;;;;;27.51;27.35;101128.81;5017168;28;20030;-74
2022/08/08 11:35:13;;;;;;;2.58;1.08;;;;;;;27.59;26.57;101118.59;5033662;28;20442;-74
2022/08/08 11:37:40;;;;;;;2.15;0.95;;;;;;;27.50;26.46;101121.38;5017007;28;20029;-74
2022/08/08 11:40:08;;;;;;;6.55;0.90;;;;;;;27.16;27.03;101116.75;5033582;28;20032;-74
2022/08/08 11:42:34;;;;;;;0.75;0.60;;;;;;;26.79;27.36;101131.53;5033631;28;20034;-74
2022/08/08 11:45:00;;;;;;;6.85;1.20;;;;;;;26.41;28.02;101126.44;5033566;28;20031;-74
2022/08/08 11:47:26;;;;;;;0.82;0.70;;;;;;;26.17;28.27;101124.06;5033763;28;20036;-76
2022/08/08 11:50:12;;;;;;;3.75;0.77;;;;;;;26.06;28.42;101125.19;5032949;28;20053;-74
2022/08/08 11:52:38;;;;;;;5.10;1.00;;;;;;;26.07;28.64;101120.13;5034527;28;20045;-74
2022/08/08 11:55:17;;;;;;;1.17;0.75;;;;;;;26.19;28.53;101118.41;5016335;28;20079;-74
2022/08/08 11:57:43;;;;;;;5.25;1.25;;;;;;;26.45;28.16;101112.16;5034767;28;20029;-74
2022/08/08 12:00:16;;;;;;;3.80;0.95;;;;;;;26.72;27.57;101118.41;5034649;28;20032;-74